• Join FlightAware (Why Join?)
  • Login
  • US Flag 
05:36PM EDT


 

Airport Tracker/Info


-or-


 

Live Flight TrackerFlight Track Log ✈ SEJ1053 ✈ 02-Dec-2013 ✈ VABP / BHO - VOHS / HYD

Flight Track Log - Related Links

Times and Time Zones

All times are in EST time to prevent confusion due to time zone crossing. See the SEJ1053 flight status page for this flight to view local times or setup timezone preferences in your user account.

Time Position Orientation Groundspeed Altitude Reporting Facility
EST Latitude Longitude Course Direction KTS MPH feet Rate Location/Type
10:39AM 22.6095 77.4648 170° South  Level Estimated
10:40AM 22.5342 77.4789 170° South  Level Estimated
10:41AM 22.4589 77.4929 170° South  Level Estimated
10:42AM 22.3836 77.5070 170° South  Level Estimated
10:43AM 22.3082 77.5210 170° South  Level Estimated
10:44AM 22.2329 77.5350 170° South  Level Estimated
10:45AM 22.1575 77.5490 170° South  Level Estimated
10:46AM 22.0822 77.5630 170° South  Level Estimated
10:47AM 22.0069 77.5770 170° South  Level Estimated
10:48AM 21.9315 77.5910 170° South  Level Estimated
10:49AM 21.8562 77.6049 170° South  Level Estimated
10:50AM 21.7808 77.6188 170° South  Level Estimated
10:51AM 21.7055 77.6327 170° South  Level Estimated
10:52AM 21.6301 77.6466 170° South  Level Estimated
10:53AM 21.5548 77.6605 170° South  Level Estimated
10:54AM 21.4795 77.6744 170° South  Level Estimated
10:55AM 21.4041 77.6882 170° South  Level Estimated
10:56AM 21.3288 77.7021 170° South  Level Estimated
10:57AM 21.2534 77.7159 170° South  Level Estimated
10:58AM 21.1780 77.7297 170° South  Level Estimated
10:59AM 21.1027 77.7435 170° South  Level Estimated
11:00AM 21.0273 77.7573 170° South  Level Estimated
11:01AM 20.9520 77.7711 170° South  Level Estimated
11:02AM 20.8766 77.7849 170° South  Level Estimated
11:03AM 20.8013 77.7986 170° South  Level Estimated
11:04AM 20.7259 77.8123 170° South  Level Estimated
11:05AM 20.6506 77.8260 170° South  Level Estimated
11:06AM 20.5752 77.8397 170° South  Level Estimated
11:07AM 20.4998 77.8534 170° South  Level Estimated
11:08AM 20.4245 77.8671 170° South  Level Estimated
11:09AM 20.3491 77.8808 170° South  Level Estimated
11:10AM 20.2737 77.8944 170° South  Level Estimated
11:11AM 20.1984 77.9081 170° South  Level Estimated
11:12AM 20.1230 77.9217 170° South  Level Estimated
11:13AM 20.0476 77.9353 170° South  Level Estimated
11:14AM 19.9723 77.9489 170° South  Level Estimated
11:15AM 19.8969 77.9625 170° South  Level Estimated
11:16AM 19.8215 77.9760 170° South  Level Estimated
11:17AM 19.7461 77.9896 170° South  Level Estimated
11:18AM 19.6708 78.0032 170° South  Level Estimated
11:19AM 19.5954 78.0167 170° South  Level Estimated
11:20AM 19.5200 78.0302 170° South  Level Estimated
11:21AM 19.4447 78.0437 170° South  Level Estimated
11:22AM 19.3693 78.0572 170° South  Level Estimated
11:23AM 19.2939 78.0707 170° South  Level Estimated
11:24AM 19.2185 78.0842 170° South  Level Estimated
11:25AM 19.1431 78.0976 170° South  Level Estimated
11:26AM 19.0678 78.1111 170° South  Level Estimated
11:27AM 18.9924 78.1245 170° South  Level Estimated
11:28AM 18.9170 78.1379 170° South  Level Estimated
11:29AM 18.8416 78.1513 170° South  Level Estimated
11:30AM 18.7662 78.1647 170° South  Level Estimated
11:31AM 18.6908 78.1781 170° South  Level Estimated
11:32AM 18.6154 78.1915 170° South  Level Estimated
11:33AM 18.5401 78.2048 170° South  Level Estimated
11:34AM 18.4647 78.2182 170° South  Level Estimated
11:35AM 18.3893 78.2315 170° South  Level Estimated
11:36AM 18.3139 78.2449 170° South  Level Estimated
11:37AM 18.2385 78.2582 170° South  Level Estimated
11:38AM 18.1631 78.2715 170° South  Level Estimated
11:39AM 18.0877 78.2848 170° South  Level Estimated
11:40AM 18.0123 78.2980 170° South  Level Estimated
11:41AM 17.9369 78.3113 170° South  Level Estimated
11:42AM 17.8615 78.3246 170° South  Level Estimated
11:43AM 17.7861 78.3378 171° South  Level Estimated
11:44AM 17.7107 78.3511 171° South  Level Estimated
11:45AM 17.6353 78.3643 171° South  Level Estimated
11:46AM 17.5599 78.3775 171° South  Level Estimated
11:47AM 17.4845 78.3907 171° South  Level Estimated
11:48AM 17.4091 78.4039 171° South  Level Estimated
11:49AM 17.3337 78.4171 171° South  Level Estimated
11:50AM 17.2583 78.4303 171° South  Level Estimated
11:51AM 17.2540 78.4310 171° South  Level Estimated
11:52AM 17.2540 78.4310 North  Level Estimated
11:53AM 17.2540 78.4310 North  Level Estimated
11:54AM 17.2540 78.4310 North  Level Estimated
11:55AM 17.2540 78.4310 North  Level Estimated
11:56AM 17.2540 78.4310 North  Level Estimated
11:57AM 17.2540 78.4310 North  Level Estimated
11:58AM 17.2540 78.4310 North  Level Estimated
11:59AM 17.2540 78.4310 North  Level Estimated
12:00PM 17.2540 78.4310 North  Level Estimated
12:01PM 17.2540 78.4310 North  Level Estimated
12:02PM 17.2540 78.4310 North  Level Estimated
12:03PM 17.2540 78.4310 North  Level Estimated
12:04PM 17.2540 78.4310 North  Level Estimated
12:05PM 17.2540 78.4310 North  Level Estimated
12:06PM 17.2540 78.4310 North  Level Estimated